This demonstration page uses our WeatherBlox Daily Observations layout. Learn more.

38.89511, -77.03637

Hourly Observations for August 14, 2019

Temp ( °F °C ) Dew Point ( °F °C ) Humidity (%) Winds ( mph kmh ) Pressure ( in mb ) Visibility ( mi km ) Precip ( " mm )
12:48 am 00:48 Cloudy 79 26 75 24 89 89 N 6 9 29.77 1008 8 12.874752 0 0
12:52 am 00:52 Cloudy 78 25.6 76 24.4 93 93 N 6 9 29.74 1007 7 11.265408 0 0
1:20 am 01:20 Cloudy 78 25.6 75 23.9 90 90 WNW 3 6 29.77 1008 10 16.09344 0 0
1:52 am 01:52 Cloudy 78 25.6 74 23.3 87 87 WNW 6 9 29.74 1007 10 16.09344 0 0
1:58 am 01:58 Cloudy 77 25 73 22.8 88 88 NNW 6 9 29.77 1008 10 16.09344 0 0
2:52 am 02:52 Mostly Cloudy 77 25 74 23.3 90 90 Calm 29.74 1007 10 16.09344 0 0
3:52 am 03:52 Partly Cloudy 77 25 74 23.3 90 90 WSW 3 6 29.74 1007 10 16.09344 0 0
4:15 am 04:15 Mostly Cloudy 77 25 74 23.3 90 90 WSW 5 7 29.77 1008 10 16.09344 0 0
4:52 am 04:52 Mostly Clear 77 25 74 23.3 90 90 Calm 29.74 1007 10 16.09344 0 0
5:52 am 05:52 Mostly Clear 76 24.4 74 23.3 94 94 Calm 29.77 1008 9 14.484096 0 0
6:25 am 06:25 Partly Cloudy 76 24.4 73 22.8 91 91 WSW 5 7 29.8 1009 10 16.09344 0 0
6:52 am 06:52 Mostly Cloudy 77 25 74 23.3 90 90 WSW 6 9 29.8 1009 9 14.484096 0 0
7:52 am 07:52 Partly Cloudy 78 25.6 74 23.3 87 87 WSW 6 9 29.8 1009 10 16.09344 0 0
8:52 am 08:52 Partly Cloudy 81 27.2 73 22.8 77 77 WNW 9 15 29.8 1009 10 16.09344 0 0
9:52 am 09:52 Partly Cloudy 83 28.3 72 22.2 70 70 NW 8 13 29.8 1009 10 16.09344 0 0
10:52 am 10:52 Mostly Cloudy 83 28.3 72 22.2 70 70 NNW 15 24 29.8 1009 10 16.09344 0 0
11:52 am 11:52 Mostly Cloudy 86 30 71 21.7 61 61 NW 10 17 29.8 1009 10 16.09344 0 0
12:52 pm 12:52 Mostly Cloudy 87 30.6 71 21.7 59 59 NW 12 19 29.8 1009 10 16.09344 0 0
1:52 pm 13:52 Mostly Cloudy 88 31.1 71 21.7 57 57 NNW 17 28 29.8 1009 10 16.09344 0 0
2:52 pm 14:52 Mostly Cloudy 88 31.1 71 21.7 57 57 N 15 24 29.83 1010 10 16.09344 0 0
3:52 pm 15:52 Mostly Cloudy 88 31.1 69 20.6 54 54 N 10 17 29.83 1010 10 16.09344 0 0
4:52 pm 16:52 Mostly Cloudy 88 31.1 69 20.6 54 54 N 9 15 29.83 1010 10 16.09344 0 0
5:52 pm 17:52 Mostly Cloudy 89 31.7 68 20 50 50 NNE 7 11 29.83 1010 10 16.09344 0 0
6:52 pm 18:52 Mostly Cloudy 86 30 69 20.6 57 57 ENE 5 7 29.8 1009 10 16.09344 0 0
7:52 pm 19:52 Mostly Cloudy 85 29.4 70 21.1 61 61 E 5 7 29.83 1010 10 16.09344 0 0
8:52 pm 20:52 Mostly Cloudy 83 28.3 70 21.1 65 65 SE 3 6 29.85 1011 10 16.09344 0.001 0.001
9:52 pm 21:52 Mostly Cloudy 82 27.8 70 21.1 67 67 E 5 7 29.88 1012 10 16.09344 0 0
10:52 pm 22:52 Partly Cloudy 80 26.7 70 21.1 71 71 Calm 29.88 1012 10 16.09344 0 0
11:52 pm 23:52 Partly Cloudy 80 26.7 70 21.1 71 71 ENE 3 6 29.88 1012 10 16.09344 0 0

Powered by AerisWeather